Time;durP1;ratioP1;P1;durP2;ratioP2;P2;SDS_P1;SDS_P2;PMS_P1;PMS_P2;Temp;Humidity;BMP_temperature;BMP_pressure;BME280_temperature;BME280_humidity;BME280_pressure;Samples;Min_cycle;Max_cycle;Signal;HPM_P1;HPM_P2
2021/12/11 00:01:10;;;;;;;28.27;17.30;;;-2.10;99.90;;;;;;5088611;28;20045;-77
2021/12/11 00:03:40;;;;;;;31.70;18.13;;;-2.10;99.90;;;;;;5067693;28;20036;-77
2021/12/11 00:06:11;;;;;;;38.37;23.80;;;-2.20;99.90;;;;;;5087881;28;20066;-77
2021/12/11 00:08:39;;;;;;;41.07;24.30;;;-2.20;99.90;;;;;;5088774;28;20037;-77
2021/12/11 00:11:10;;;;;;;46.60;28.97;;;-2.10;99.90;;;;;;5070434;28;20123;-77
2021/12/11 00:13:39;;;;;;;43.20;24.87;;;-2.10;99.90;;;;;;5089059;28;20068;-77
2021/12/11 00:16:06;;;;;;;50.27;29.73;;;-2.10;99.90;;;;;;5066873;28;20457;-77
2021/12/11 00:18:33;;;;;;;52.80;25.30;;;-2.10;99.90;;;;;;5072024;28;20403;-77
2021/12/11 00:21:09;;;;;;;33.27;22.50;;;-2.10;99.90;;;;;;5071945;28;20045;-78
2021/12/11 00:23:39;;;;;;;43.57;24.93;;;-2.20;99.90;;;;;;5070976;28;20063;-78
2021/12/11 00:26:07;;;;;;;40.67;23.13;;;-2.20;99.90;;;;;;5071442;28;20036;-78
2021/12/11 00:28:43;;;;;;;36.30;20.17;;;-2.30;99.90;;;;;;5071842;28;20028;-78
2021/12/11 00:31:09;;;;;;;54.72;27.98;;;-2.30;99.90;;;;;;5090366;28;20040;-80
2021/12/11 00:33:35;;;;;;;59.47;30.37;;;-2.30;99.90;;;;;;5073787;28;20446;-80
2021/12/11 00:36:07;;;;;;;50.13;28.97;;;-2.30;99.90;;;;;;5073226;28;20052;-80
2021/12/11 00:38:34;;;;;;;53.57;28.33;;;-2.30;99.90;;;;;;5073076;28;20043;-80
2021/12/11 00:41:04;;;;;;;46.20;26.20;;;-2.30;99.90;;;;;;5072506;28;20045;-80
2021/12/11 00:43:34;;;;;;;42.83;24.97;;;-2.30;99.90;;;;;;5090556;28;20140;-80
2021/12/11 00:46:04;;;;;;;44.63;24.10;;;-2.30;99.90;;;;;;5072474;28;20034;-80
2021/12/11 00:48:30;;;;;;;35.93;21.60;;;-2.30;99.90;;;;;;5089998;28;20041;-80
2021/12/11 00:51:13;;;;;;;34.97;20.67;;;-2.40;99.90;;;;;;5055509;28;20084;-80
2021/12/11 00:53:43;;;;;;;46.57;25.40;;;-2.50;99.90;;;;;;5091452;28;20540;-81
2021/12/11 00:56:17;;;;;;;52.43;27.03;;;-2.50;99.90;;;;;;5072437;28;20588;-80
2021/12/11 00:58:44;;;;;;;37.87;22.13;;;-2.50;99.90;;;;;;5071035;28;20032;-78
2021/12/11 01:01:41;;;;;;;48.30;27.27;;;-2.50;99.90;;;;;;5070758;28;20119;-78
2021/12/11 01:04:14;;;;;;;41.80;21.33;;;-2.50;99.90;;;;;;5070694;28;20119;-78
2021/12/11 01:06:45;;;;;;;43.63;25.03;;;-2.40;99.90;;;;;;5070876;28;20037;-78
2021/12/11 01:09:17;;;;;;;43.03;25.90;;;-2.40;99.90;;;;;;5071056;28;20572;-78
2021/12/11 01:12:06;;;;;;;54.97;28.93;;;-2.40;99.90;;;;;;5065898;28;20070;-78
2021/12/11 01:14:40;;;;;;;47.07;25.50;;;-2.40;99.90;;;;;;5069627;28;20040;-78
2021/12/11 01:17:31;;;;;;;49.97;25.38;;;-2.40;99.90;;;;;;5081761;28;20043;-78
2021/12/11 01:20:00;;;;;;;44.10;26.17;;;-2.30;99.90;;;;;;5052140;28;20041;-78
2021/12/11 01:22:35;;;;;;;44.97;23.57;;;-2.20;99.90;;;;;;5087011;28;20390;-78
2021/12/11 01:25:16;;;;;;;40.40;22.58;;;-2.30;99.90;;;;;;5070230;28;20044;-78
2021/12/11 01:27:45;;;;;;;39.90;19.83;;;-2.30;99.90;;;;;;5068688;28;20034;-78
2021/12/11 01:30:18;;;;;;;40.83;21.60;;;-2.40;99.90;;;;;;5086522;28;20063;-78
2021/12/11 01:32:44;;;;;;;42.33;24.40;;;-2.50;99.90;;;;;;5087108;28;20439;-78
2021/12/11 01:35:13;;;;;;;35.97;20.63;;;-2.50;99.90;;;;;;5069688;28;20047;-78
2021/12/11 01:37:40;;;;;;;37.37;22.63;;;-2.50;99.90;;;;;;5066135;28;20067;-78
2021/12/11 01:40:09;;;;;;;62.87;33.67;;;-2.50;99.90;;;;;;5069845;28;20059;-79
2021/12/11 01:42:36;;;;;;;43.93;23.83;;;-2.50;99.90;;;;;;5086477;28;20036;-79
2021/12/11 01:45:06;;;;;;;41.43;21.63;;;-2.60;99.90;;;;;;5069601;28;20041;-78
2021/12/11 01:47:35;;;;;;;34.13;19.73;;;-2.60;99.90;;;;;;5066195;28;20065;-79
2021/12/11 01:50:09;;;;;;;39.63;23.97;;;-2.60;99.90;;;;;;5069706;28;20115;-78
2021/12/11 01:52:41;;;;;;;42.57;23.93;;;-2.70;99.90;;;;;;5069540;28;20037;-79
2021/12/11 01:55:18;;;;;;;42.10;22.40;;;-2.70;99.90;;;;;;5083606;28;20397;-78
2021/12/11 01:57:52;;;;;;;30.67;18.50;;;-2.70;99.90;;;;;;5085780;28;20040;-79
2021/12/11 02:00:44;;;;;;;30.40;18.60;;;-2.80;99.90;;;;;;5086268;28;20124;-78
2021/12/11 02:03:15;;;;;;;33.13;17.17;;;-2.90;99.90;;;;;;5044005;28;20049;-78
2021/12/11 02:05:41;;;;;;;27.93;17.17;;;-2.90;99.90;;;;;;5070443;28;20059;-79
2021/12/11 02:08:15;;;;;;;156.77;42.40;;;-2.90;99.90;;;;;;5093280;28;20043;-79
2021/12/11 02:10:53;;;;;;;138.87;32.40;;;-2.90;99.90;;;;;;5073729;28;20051;-78
2021/12/11 02:13:31;;;;;;;41.13;20.77;;;-2.90;99.90;;;;;;5076599;28;20129;-78
2021/12/11 02:15:56;;;;;;;37.53;21.23;;;-3.00;99.90;;;;;;5089925;28;20109;-78
2021/12/11 02:18:33;;;;;;;68.87;24.77;;;-2.90;99.90;;;;;;5076464;28;20028;-78
2021/12/11 02:21:06;;;;;;;194.23;53.37;;;-2.90;99.90;;;;;;5074450;28;20086;-78
2021/12/11 02:23:33;;;;;;;57.70;28.23;;;-2.90;99.90;;;;;;5075926;28;20103;-78
2021/12/11 02:26:17;;;;;;;53.13;27.60;;;-2.90;99.90;;;;;;5059108;28;20109;-78
2021/12/11 02:28:50;;;;;;;52.27;26.77;;;-2.90;99.90;;;;;;5092763;28;20036;-78
2021/12/11 02:31:42;;;;;;;38.80;23.83;;;-2.90;99.90;;;;;;5075806;28;20527;-78
2021/12/11 02:34:28;;;;;;;64.27;33.37;;;-3.00;99.90;;;;;;5076530;28;20036;-78
2021/12/11 02:37:08;;;;;;;47.58;25.80;;;-3.00;99.90;;;;;;5071501;28;20055;-78
2021/12/11 02:39:46;;;;;;;48.90;25.33;;;-3.00;99.90;;;;;;5075753;28;20550;-78
2021/12/11 02:42:14;;;;;;;56.57;29.67;;;-2.90;99.90;;;;;;5090259;28;20036;-79
2021/12/11 02:44:57;;;;;;;49.30;26.83;;;-2.90;99.90;;;;;;5076266;28;20427;-78
2021/12/11 02:47:28;;;;;;;58.87;33.93;;;-2.90;99.90;;;;;;5090553;28;20051;-78
2021/12/11 02:50:09;;;;;;;44.77;24.53;;;-2.90;99.90;;;;;;5059414;28;20037;-79
2021/12/11 02:53:00;;;;;;;36.17;21.57;;;-2.90;99.90;;;;;;5092885;28;20044;-78
2021/12/11 02:55:43;;;;;;;40.30;23.23;;;-2.80;99.90;;;;;;5075573;28;20036;-78
2021/12/11 02:58:17;;;;;;;38.30;21.03;;;-2.80;99.90;;;;;;5073485;28;20044;-79
2021/12/11 03:00:47;;;;;;;38.77;22.17;;;-2.80;99.90;;;;;;5075762;28;20037;-79
2021/12/11 03:03:15;;;;;;;43.10;23.33;;;-2.90;99.90;;;;;;5075531;28;20039;-79
2021/12/11 03:06:00;;;;;;;37.43;22.93;;;-2.90;99.90;;;;;;5075519;28;20025;-78
2021/12/11 03:08:26;;;;;;;35.75;23.40;;;-3.00;99.90;;;;;;5074371;28;20603;-78
2021/12/11 03:10:56;;;;;;;36.53;21.53;;;-3.00;99.90;;;;;;5076127;28;20071;-78
2021/12/11 03:13:23;;;;;;;54.30;32.13;;;-3.00;99.90;;;;;;5075939;28;20492;-78
2021/12/11 03:15:50;;;;;;;37.93;22.33;;;-3.00;99.90;;;;;;5092581;28;20049;-79
2021/12/11 03:18:16;;;;;;;43.50;21.53;;;-3.10;99.90;;;;;;5089731;28;20179;-79
2021/12/11 03:20:44;;;;;;;40.53;22.80;;;-3.00;99.90;;;;;;5089515;28;20111;-78
2021/12/11 03:23:10;;;;;;;40.80;21.37;;;-3.00;99.90;;;;;;5072241;28;20041;-78
2021/12/11 03:25:38;;;;;;;40.43;22.77;;;-3.00;99.90;;;;;;5086485;28;20036;-79
2021/12/11 03:28:06;;;;;;;39.67;21.60;;;-3.00;99.90;;;;;;5053078;28;20041;-78
2021/12/11 03:30:36;;;;;;;40.60;24.30;;;-3.00;99.90;;;;;;5072543;28;20101;-78
2021/12/11 03:33:07;;;;;;;37.67;21.27;;;-3.00;99.90;;;;;;5072079;28;20044;-78
2021/12/11 03:35:33;;;;;;;51.03;25.87;;;-2.90;99.90;;;;;;5072262;28;20048;-78
2021/12/11 03:37:59;;;;;;;42.17;22.27;;;-2.90;99.90;;;;;;5072191;28;20044;-78
2021/12/11 03:40:26;;;;;;;48.63;23.73;;;-2.90;99.90;;;;;;5071988;28;20078;-79
2021/12/11 03:42:58;;;;;;;38.27;20.50;;;-2.90;99.90;;;;;;5071332;28;20068;-79
2021/12/11 03:45:31;;;;;;;34.40;22.33;;;-3.00;99.90;;;;;;5087346;28;20043;-79
2021/12/11 03:48:06;;;;;;;42.50;25.50;;;-3.00;99.90;;;;;;5071706;28;20135;-78
2021/12/11 03:50:32;;;;;;;55.00;30.17;;;-3.00;99.90;;;;;;5088846;28;20094;-78
2021/12/11 03:52:58;;;;;;;37.97;21.73;;;-3.00;99.90;;;;;;5071876;28;20052;-79
2021/12/11 03:55:30;;;;;;;40.83;21.77;;;-3.00;99.90;;;;;;5072129;28;20032;-78
2021/12/11 03:58:00;;;;;;;41.07;23.40;;;-3.00;99.90;;;;;;5071532;28;20404;-78
2021/12/11 04:00:57;;;;;;;35.00;19.73;;;-3.00;99.90;;;;;;5072061;28;20055;-78
2021/12/11 04:03:31;;;;;;;44.73;25.13;;;-3.10;99.90;;;;;;5071185;28;20404;-78
2021/12/11 04:05:59;;;;;;;38.40;22.40;;;-3.10;99.90;;;;;;5077914;28;20050;-79
2021/12/11 04:08:28;;;;;;;52.07;27.73;;;-3.10;99.90;;;;;;5111611;28;20589;-78
2021/12/11 04:10:55;;;;;;;41.93;21.47;;;-3.10;99.90;;;;;;5112176;28;20236;-79
2021/12/11 04:13:21;;;;;;;40.17;22.30;;;-3.10;99.90;;;;;;5095421;28;20028;-79
2021/12/11 04:15:50;;;;;;;38.63;22.17;;;-3.10;99.90;;;;;;5110742;28;20091;-78
2021/12/11 04:18:16;;;;;;;41.17;22.50;;;-3.10;99.90;;;;;;5111387;28;20028;-79
2021/12/11 04:20:45;;;;;;;39.00;20.60;;;-3.00;99.90;;;;;;5093271;28;20031;-79
2021/12/11 04:23:13;;;;;;;43.27;22.70;;;-3.00;99.90;;;;;;5093768;28;20045;-78
2021/12/11 04:25:41;;;;;;;35.57;19.10;;;-3.00;99.90;;;;;;5096473;28;20052;-78
2021/12/11 04:28:09;;;;;;;35.07;18.77;;;-3.10;99.90;;;;;;5055076;28;20409;-78
2021/12/11 04:30:36;;;;;;;41.23;23.57;;;-3.10;99.90;;;;;;5071326;28;20044;-78
2021/12/11 04:33:02;;;;;;;38.63;24.63;;;-3.10;99.90;;;;;;5088038;28;20048;-78
2021/12/11 04:35:28;;;;;;;34.10;18.27;;;-3.10;99.90;;;;;;5071294;28;20119;-78
2021/12/11 04:38:00;;;;;;;47.80;25.07;;;-3.10;99.90;;;;;;5054617;28;20051;-78
2021/12/11 04:40:32;;;;;;;47.63;24.93;;;-3.00;99.90;;;;;;5085680;28;20048;-78
2021/12/11 04:43:06;;;;;;;44.00;21.43;;;-3.00;99.90;;;;;;5069498;28;20041;-78
2021/12/11 04:45:43;;;;;;;48.33;24.50;;;-3.00;99.90;;;;;;5070967;28;20037;-78
2021/12/11 04:48:23;;;;;;;37.30;20.03;;;-3.10;99.90;;;;;;5053848;28;20431;-78
2021/12/11 04:51:13;;;;;;;43.20;23.47;;;-3.00;99.90;;;;;;5070144;28;20029;-78
2021/12/11 04:59:21;;;;;;;41.17;21.27;;;-3.10;99.90;;;;;;5070104;28;20174;-78
2021/12/11 05:09:45;;;;;;;39.40;21.60;;;-2.90;99.90;;;;;;5070537;28;20097;-78
2021/12/11 05:12:20;;;;;;;47.33;23.77;;;-2.80;99.90;;;;;;5070347;28;20037;-78
2021/12/11 05:14:46;;;;;;;57.85;31.65;;;-2.80;99.90;;;;;;5070521;28;20111;-78
2021/12/11 05:17:12;;;;;;;57.50;30.30;;;-2.80;99.90;;;;;;5086941;28;20134;-78
2021/12/11 05:19:39;;;;;;;51.17;28.43;;;-2.80;99.90;;;;;;5086559;28;20040;-78
2021/12/11 05:22:07;;;;;;;47.23;26.40;;;-2.70;99.90;;;;;;5087083;28;20500;-78
2021/12/11 05:24:34;;;;;;;41.73;23.63;;;-2.70;99.90;;;;;;5083862;28;20051;-78
2021/12/11 05:27:01;;;;;;;42.80;24.23;;;-2.80;99.90;;;;;;5086773;28;20102;-78
2021/12/11 05:29:28;;;;;;;44.90;25.67;;;-2.90;99.90;;;;;;5070146;28;20505;-78
2021/12/11 05:31:53;;;;;;;46.53;23.60;;;-3.00;99.90;;;;;;5053670;28;20036;-78
2021/12/11 05:34:19;;;;;;;42.50;24.23;;;-3.00;99.90;;;;;;5070264;28;20127;-78
2021/12/11 05:36:46;;;;;;;43.17;23.70;;;-3.00;99.90;;;;;;5069899;28;20124;-78
2021/12/11 05:39:16;;;;;;;40.83;23.23;;;-3.00;99.90;;;;;;5086676;28;20032;-78
2021/12/11 05:41:43;;;;;;;42.83;22.63;;;-3.10;99.90;;;;;;5085550;28;20112;-78
2021/12/11 05:44:10;;;;;;;33.87;21.23;;;-3.10;99.90;;;;;;5069689;28;20043;-78
2021/12/11 05:46:37;;;;;;;57.50;31.30;;;-3.10;99.90;;;;;;5070990;28;20051;-79
2021/12/11 05:49:04;;;;;;;41.77;24.27;;;-3.10;99.90;;;;;;5074792;28;20036;-78
2021/12/11 05:51:37;;;;;;;57.53;30.87;;;-3.20;99.90;;;;;;5070237;28;20036;-78
2021/12/11 05:54:07;;;;;;;55.47;28.33;;;-3.20;99.90;;;;;;5070337;28;20526;-78
2021/12/11 05:56:36;;;;;;;42.80;23.10;;;-3.20;99.90;;;;;;5086461;28;20044;-78
2021/12/11 05:59:07;;;;;;;56.37;29.23;;;-3.20;99.90;;;;;;5086190;28;20044;-78
2021/12/11 06:01:43;;;;;;;49.57;27.17;;;-3.20;99.90;;;;;;5086805;28;20037;-78
2021/12/11 06:04:14;;;;;;;49.57;25.37;;;-3.20;99.90;;;;;;5069551;28;20400;-78
2021/12/11 06:06:41;;;;;;;52.40;27.03;;;-3.20;99.90;;;;;;5069372;28;20028;-78
2021/12/11 06:09:09;;;;;;;39.33;23.27;;;-3.20;99.90;;;;;;5086445;28;20040;-78
2021/12/11 06:11:36;;;;;;;37.53;21.63;;;-3.20;99.90;;;;;;5086294;28;20037;-78
2021/12/11 06:14:02;;;;;;;37.10;20.03;;;-3.30;99.90;;;;;;5086039;28;20043;-78
2021/12/11 06:16:28;;;;;;;42.37;22.33;;;-3.30;99.90;;;;;;5069531;28;20104;-78
2021/12/11 06:18:54;;;;;;;36.80;21.57;;;-3.30;99.90;;;;;;5053027;28;20215;-78
2021/12/11 06:21:23;;;;;;;37.53;21.07;;;-3.30;99.90;;;;;;5082468;28;20052;-78
2021/12/11 06:23:49;;;;;;;41.07;22.67;;;-3.30;99.90;;;;;;5066200;28;20047;-78
2021/12/11 06:26:15;;;;;;;41.10;23.77;;;-3.30;99.90;;;;;;5066196;28;20471;-78
2021/12/11 06:28:41;;;;;;;40.27;22.83;;;-3.20;99.90;;;;;;5069036;28;20043;-77
2021/12/11 06:31:07;;;;;;;41.17;23.37;;;-3.30;99.90;;;;;;5101402;28;20066;-77
2021/12/11 06:33:34;;;;;;;40.47;23.47;;;-3.30;99.90;;;;;;5052873;28;20075;-77
2021/12/11 06:36:08;;;;;;;34.60;18.80;;;-3.30;99.90;;;;;;5083649;28;20044;-78
2021/12/11 06:38:36;;;;;;;34.07;21.20;;;-3.30;99.90;;;;;;5085024;28;20104;-78
2021/12/11 06:41:06;;;;;;;50.40;27.87;;;-3.40;99.90;;;;;;5084428;28;20041;-78
2021/12/11 06:43:32;;;;;;;47.73;27.63;;;-3.30;99.90;;;;;;5101082;28;20028;-78
2021/12/11 06:45:59;;;;;;;56.83;31.13;;;-3.30;99.90;;;;;;5084871;28;20068;-78
2021/12/11 06:48:24;;;;;;;57.37;32.00;;;-3.30;99.90;;;;;;5081008;28;20099;-78
2021/12/11 06:50:51;;;;;;;48.30;27.93;;;-3.30;99.90;;;;;;5086312;28;20127;-78
2021/12/11 06:53:31;;;;;;;53.93;26.87;;;-3.30;99.90;;;;;;5085575;28;20032;-77
2021/12/11 06:55:57;;;;;;;45.37;26.23;;;-3.20;99.90;;;;;;5087953;28;20041;-77
2021/12/11 06:58:23;;;;;;;53.90;27.47;;;-3.20;99.90;;;;;;5085236;28;20031;-77
2021/12/11 07:00:48;;;;;;;46.53;26.80;;;-3.20;99.90;;;;;;5090280;28;20040;-78
2021/12/11 07:03:14;;;;;;;46.97;27.17;;;-3.30;99.90;;;;;;5070800;28;20063;-78
2021/12/11 07:05:40;;;;;;;55.33;29.83;;;-3.30;99.90;;;;;;5106396;28;20028;-78
2021/12/11 07:08:11;;;;;;;64.07;33.50;;;-3.20;99.90;;;;;;5086755;28;20047;-78
2021/12/11 07:10:37;;;;;;;52.60;29.23;;;-3.20;99.90;;;;;;5086265;28;20032;-77
2021/12/11 07:13:03;;;;;;;51.37;31.17;;;-3.20;99.90;;;;;;5088249;28;20036;-77
2021/12/11 07:15:29;;;;;;;59.33;29.83;;;-3.20;99.90;;;;;;5088455;28;20036;-78
2021/12/11 07:17:55;;;;;;;41.83;24.50;;;-3.10;99.90;;;;;;5087140;28;20048;-78
2021/12/11 07:20:21;;;;;;;51.13;26.27;;;-3.10;99.90;;;;;;5087396;28;20040;-77
2021/12/11 07:22:47;;;;;;;65.17;32.37;;;-3.10;99.90;;;;;;5085253;28;20075;-77
2021/12/11 07:25:26;;;;;;;60.80;32.57;;;-3.10;99.90;;;;;;5103721;28;20084;-78
2021/12/11 07:27:53;;;;;;;56.63;30.53;;;-3.10;99.90;;;;;;5085391;28;20087;-78
2021/12/11 07:30:24;;;;;;;43.67;23.97;;;-3.10;99.90;;;;;;5087193;28;20033;-78
2021/12/11 07:32:54;;;;;;;51.27;26.27;;;-3.00;99.90;;;;;;5068852;28;20036;-78
2021/12/11 07:35:20;;;;;;;51.53;27.43;;;-3.10;99.90;;;;;;5083515;28;20058;-78
2021/12/11 07:37:49;;;;;;;51.37;30.17;;;-3.10;99.90;;;;;;5087665;28;20052;-78
2021/12/11 07:40:21;;;;;;;56.20;30.93;;;-3.10;99.90;;;;;;5069476;28;20082;-78
2021/12/11 07:42:48;;;;;;;45.10;25.13;;;-3.10;99.90;;;;;;5085967;28;20076;-78
2021/12/11 07:45:15;;;;;;;53.00;27.73;;;-3.10;99.90;;;;;;5102768;28;20040;-78
2021/12/11 07:47:41;;;;;;;50.37;27.73;;;-3.10;99.90;;;;;;5101678;28;20037;-78
2021/12/11 07:50:07;;;;;;;54.07;30.23;;;-3.10;99.90;;;;;;5084411;28;20040;-78
2021/12/11 07:52:33;;;;;;;69.43;34.23;;;-3.10;99.90;;;;;;5081501;28;20051;-78
2021/12/11 07:54:58;;;;;;;57.97;32.10;;;-3.00;99.90;;;;;;5084337;28;20041;-78
2021/12/11 07:57:24;;;;;;;61.43;34.93;;;-3.00;99.90;;;;;;5085230;28;20036;-78
2021/12/11 07:59:50;;;;;;;59.77;31.50;;;-2.90;99.90;;;;;;5085849;28;20036;-78
2021/12/11 08:02:16;;;;;;;66.70;34.40;;;-3.00;99.90;;;;;;5086049;28;20059;-79
2021/12/11 08:04:41;;;;;;;49.83;28.97;;;-2.90;99.90;;;;;;5087786;28;20048;-79
2021/12/11 08:07:07;;;;;;;63.03;34.37;;;-2.90;99.90;;;;;;5086313;28;20049;-79
2021/12/11 08:09:34;;;;;;;73.13;39.37;;;-2.80;99.90;;;;;;5084832;28;20162;-79
2021/12/11 08:12:00;;;;;;;63.27;35.47;;;-2.80;99.90;;;;;;5102000;28;20053;-79
2021/12/11 08:14:26;;;;;;;77.23;40.13;;;-2.70;99.90;;;;;;5084566;28;20096;-79
2021/12/11 08:16:57;;;;;;;81.60;40.63;;;-2.60;99.90;;;;;;5085486;28;20095;-79
2021/12/11 08:19:26;;;;;;;77.57;42.77;;;-2.50;99.90;;;;;;5087802;28;20028;-79
2021/12/11 08:21:54;;;;;;;73.50;38.40;;;-2.40;99.90;;;;;;5082218;28;20064;-79
2021/12/11 08:24:21;;;;;;;80.57;41.43;;;-2.40;99.90;;;;;;5087578;28;20033;-79
2021/12/11 08:26:49;;;;;;;79.67;40.07;;;-2.40;99.90;;;;;;5086786;28;20040;-78
2021/12/11 08:29:17;;;;;;;85.23;42.73;;;-2.40;99.90;;;;;;5085730;28;20082;-79
2021/12/11 08:31:46;;;;;;;83.23;42.53;;;-2.30;99.90;;;;;;5084697;28;20055;-79
2021/12/11 08:34:12;;;;;;;77.67;40.30;;;-2.30;99.90;;;;;;5084931;28;20043;-78
2021/12/11 08:36:38;;;;;;;92.70;46.60;;;-2.20;99.90;;;;;;5082888;28;20040;-78
2021/12/11 08:39:06;;;;;;;82.73;44.63;;;-2.10;99.90;;;;;;5084251;28;20036;-80
2021/12/11 08:41:35;;;;;;;92.93;48.90;;;-2.00;99.90;;;;;;5067503;28;20044;-78
2021/12/11 08:44:08;;;;;;;80.43;45.47;;;-1.90;99.90;;;;;;5085890;28;20194;-78
2021/12/11 08:46:35;;;;;;;90.37;46.23;;;-1.80;99.90;;;;;;5086813;28;20063;-78
2021/12/11 08:49:06;;;;;;;89.20;46.30;;;-1.70;99.90;;;;;;5084303;28;20048;-78
2021/12/11 08:51:39;;;;;;;82.87;46.37;;;-1.60;99.90;;;;;;5086949;28;20037;-79
2021/12/11 08:54:06;;;;;;;91.17;49.93;;;-1.50;99.90;;;;;;5085385;28;20125;-79
2021/12/11 08:56:34;;;;;;;90.57;47.00;;;-1.50;99.90;;;;;;5084719;28;20147;-79
2021/12/11 08:59:00;;;;;;;80.63;43.73;;;-1.30;99.90;;;;;;5084438;28;20095;-78
2021/12/11 09:01:33;;;;;;;87.33;46.07;;;-1.30;99.90;;;;;;5085252;28;20060;-79
2021/12/11 09:04:13;;;;;;;77.50;42.67;;;-1.30;99.90;;;;;;5084568;28;20500;-79
2021/12/11 09:06:50;;;;;;;81.83;42.73;;;-1.20;99.90;;;;;;5084838;28;20045;-78
2021/12/11 09:09:22;;;;;;;81.33;44.80;;;-1.10;99.90;;;;;;5066804;28;20083;-78
2021/12/11 09:11:53;;;;;;;87.60;45.53;;;-1.00;99.90;;;;;;5065831;28;20226;-78
2021/12/11 09:14:30;;;;;;;86.60;45.10;;;-1.00;99.90;;;;;;5066390;28;20052;-78
2021/12/11 09:17:10;;;;;;;79.20;43.70;;;-0.90;99.90;;;;;;5080689;28;20076;-78
2021/12/11 09:20:01;;;;;;;75.40;44.37;;;-0.80;99.90;;;;;;5082369;28;20045;-78
2021/12/11 09:22:39;;;;;;;77.80;42.97;;;-0.70;99.90;;;;;;5041891;28;20052;-78
2021/12/11 09:25:44;;;;;;;71.23;41.57;;;-0.70;99.90;;;;;;5082027;28;20060;-78
2021/12/11 09:28:16;;;;;;;70.90;39.00;;;-0.60;99.90;;;;;;5022101;28;20061;-78
2021/12/11 09:30:48;;;;;;;76.53;41.90;;;-0.50;99.90;;;;;;5068276;28;20053;-78
2021/12/11 09:33:21;;;;;;;71.67;42.37;;;-0.40;99.90;;;;;;5083007;28;20032;-77
2021/12/11 09:36:04;;;;;;;70.93;40.37;;;-0.40;99.90;;;;;;5065093;28;20089;-77
2021/12/11 09:38:35;;;;;;;61.67;34.67;;;-0.30;99.90;;;;;;5083178;28;20040;-78
2021/12/11 09:41:21;;;;;;;64.47;36.37;;;-0.20;99.90;;;;;;5085556;28;20043;-78
2021/12/11 09:44:05;;;;;;;56.47;36.73;;;-0.20;99.90;;;;;;5069241;28;20045;-78
2021/12/11 09:46:36;;;;;;;58.77;36.57;;;-0.10;99.90;;;;;;5086372;28;20101;-79
2021/12/11 09:49:05;;;;;;;64.50;36.63;;;0.00;99.90;;;;;;5084277;28;20148;-78
2021/12/11 09:51:37;;;;;;;59.97;32.97;;;0.10;99.90;;;;;;5087097;28;20104;-79
2021/12/11 09:54:09;;;;;;;62.37;35.07;;;0.10;99.90;;;;;;5092886;28;20029;-78
2021/12/11 09:56:43;;;;;;;63.00;36.73;;;0.10;99.90;;;;;;5093083;28;20044;-80
2021/12/11 09:59:13;;;;;;;57.00;34.30;;;0.20;99.90;;;;;;5094515;28;20040;-80
2021/12/11 10:01:41;;;;;;;58.23;32.90;;;0.30;99.90;;;;;;5093005;28;20100;-80
2021/12/11 10:04:17;;;;;;;59.90;34.93;;;0.30;99.90;;;;;;5094847;28;20096;-80
2021/12/11 10:09:37;;;;;;;53.03;32.13;;;0.40;99.90;;;;;;5091844;28;20102;-80
2021/12/11 10:12:08;;;;;;;53.72;31.70;;;0.50;99.90;;;;;;5081988;28;20115;-81
2021/12/11 10:14:43;;;;;;;59.53;34.80;;;0.60;99.90;;;;;;5081823;28;20048;-80
2021/12/11 10:17:14;;;;;;;55.13;33.60;;;0.60;99.90;;;;;;5081755;28;20090;-81
2021/12/11 10:19:42;;;;;;;48.63;31.20;;;0.70;99.90;;;;;;5082045;28;20051;-81
2021/12/11 10:22:20;;;;;;;51.17;29.70;;;0.70;99.90;;;;;;5084344;28;20050;-81
2021/12/11 10:24:47;;;;;;;43.83;27.50;;;0.90;99.90;;;;;;5081684;28;20384;-81
2021/12/11 10:27:17;;;;;;;37.63;23.63;;;1.00;99.90;;;;;;5085524;28;20040;-80
2021/12/11 10:29:45;;;;;;;35.63;22.03;;;1.20;99.90;;;;;;5086707;28;20045;-81
2021/12/11 10:32:17;;;;;;;31.83;20.93;;;1.40;99.90;;;;;;5088608;28;20055;-80
2021/12/11 10:34:48;;;;;;;31.70;20.77;;;1.60;99.90;;;;;;5086671;28;20044;-78
2021/12/11 10:37:19;;;;;;;28.00;18.03;;;1.80;99.90;;;;;;5086910;28;20378;-79
2021/12/11 10:39:48;;;;;;;28.17;18.47;;;1.90;99.90;;;;;;5068148;28;20062;-79
2021/12/11 10:42:14;;;;;;;26.37;17.47;;;2.00;99.90;;;;;;5086474;28;20049;-79
2021/12/11 10:44:44;;;;;;;30.63;20.50;;;2.10;99.90;;;;;;5084405;28;20092;-79
2021/12/11 10:47:35;;;;;;;26.98;18.42;;;2.30;99.90;;;;;;5089266;28;20029;-80
2021/12/11 10:50:04;;;;;;;25.20;16.30;;;2.50;99.90;;;;;;5091106;28;20047;-80
2021/12/11 10:52:31;;;;;;;26.77;17.83;;;2.60;99.90;;;;;;5089990;28;20048;-80
2021/12/11 10:55:00;;;;;;;26.63;17.15;;;2.70;99.90;;;;;;5089028;28;20040;-80
2021/12/11 10:57:27;;;;;;;27.33;17.65;;;2.80;99.90;;;;;;5087683;28;20036;-80
2021/12/11 10:59:56;;;;;;;25.73;17.83;;;2.90;99.90;;;;;;5102130;28;20404;-80
2021/12/11 11:02:28;;;;;;;22.83;17.02;;;2.90;99.90;;;;;;5084960;28;20048;-80
2021/12/11 11:05:00;;;;;;;26.15;17.05;;;3.00;99.90;;;;;;5067880;28;20036;-80
2021/12/11 11:07:27;;;;;;;23.98;17.20;;;3.10;99.90;;;;;;5086337;28;20134;-80
2021/12/11 11:09:59;;;;;;;23.75;16.05;;;3.10;99.90;;;;;;5086139;28;20032;-80
2021/12/11 11:12:27;;;;;;;23.25;15.63;;;3.10;99.90;;;;;;5087445;28;20075;-80
2021/12/11 11:14:55;;;;;;;24.80;16.95;;;3.10;99.90;;;;;;5088128;28;20036;-79
2021/12/11 11:17:26;;;;;;;24.63;18.02;;;3.10;99.90;;;;;;5086728;28;20040;-79
2021/12/11 11:19:53;;;;;;;23.67;18.58;;;3.20;99.90;;;;;;5087368;28;20116;-80
2021/12/11 11:22:24;;;;;;;28.02;18.05;;;3.40;99.90;;;;;;5087976;28;20140;-80
2021/12/11 11:24:58;;;;;;;23.70;16.38;;;3.50;99.90;;;;;;5087947;28;20036;-80
2021/12/11 11:27:24;;;;;;;23.70;16.63;;;3.60;99.90;;;;;;5088944;28;20055;-80
2021/12/11 11:29:50;;;;;;;26.20;18.27;;;3.70;99.90;;;;;;5085814;28;20032;-81
2021/12/11 11:32:19;;;;;;;21.92;16.40;;;3.70;99.90;;;;;;5069615;28;20051;-80
2021/12/11 11:34:45;;;;;;;24.80;16.90;;;3.80;99.90;;;;;;5068437;28;20119;-80
2021/12/11 11:37:17;;;;;;;23.33;16.13;;;3.90;99.90;;;;;;5067689;28;20044;-80
2021/12/11 11:39:43;;;;;;;21.58;16.67;;;4.00;99.90;;;;;;5084143;28;20044;-80
2021/12/11 11:42:14;;;;;;;20.95;15.40;;;4.10;99.90;;;;;;5084521;28;20049;-80
2021/12/11 11:44:43;;;;;;;22.60;15.48;;;4.10;99.90;;;;;;5066728;28;20032;-80
2021/12/11 11:47:12;;;;;;;25.40;16.38;;;4.20;99.90;;;;;;5086068;28;20098;-79
2021/12/11 11:49:38;;;;;;;23.42;16.92;;;4.30;99.90;;;;;;5102185;28;20401;-79
2021/12/11 11:52:08;;;;;;;25.70;15.95;;;4.50;99.90;;;;;;5085878;28;20040;-80
2021/12/11 11:54:36;;;;;;;27.80;16.38;;;4.60;99.90;;;;;;5084662;28;20049;-79
2021/12/11 11:57:11;;;;;;;26.17;16.85;;;4.80;99.90;;;;;;5085442;28;20072;-80
2021/12/11 11:59:39;;;;;;;25.70;16.90;;;5.00;99.90;;;;;;5085651;28;20039;-79
2021/12/11 12:02:11;;;;;;;23.95;17.42;;;5.20;99.90;;;;;;5083986;28;20064;-79
2021/12/11 12:04:38;;;;;;;24.33;15.88;;;5.50;99.90;;;;;;5084258;28;20045;-80
2021/12/11 12:07:05;;;;;;;18.73;15.02;;;5.70;99.90;;;;;;5055167;28;20053;-79
2021/12/11 12:09:35;;;;;;;23.90;17.05;;;5.80;99.90;;;;;;5085179;28;20044;-80
2021/12/11 12:12:03;;;;;;;23.40;16.05;;;5.90;99.90;;;;;;5085821;28;20037;-80
2021/12/11 12:14:31;;;;;;;23.65;15.90;;;5.90;99.90;;;;;;5085965;28;20044;-80
2021/12/11 12:16:58;;;;;;;24.70;16.15;;;6.00;99.90;;;;;;5084064;28;20049;-80
2021/12/11 12:19:26;;;;;;;23.98;17.20;;;6.20;99.90;;;;;;5103533;28;20100;-81
2021/12/11 12:21:55;;;;;;;25.35;16.27;;;6.40;99.90;;;;;;5084811;28;20515;-81
2021/12/11 12:24:23;;;;;;;22.52;15.27;;;6.50;99.90;;;;;;5084046;28;20545;-81
2021/12/11 12:26:50;;;;;;;20.30;15.02;;;6.70;99.90;;;;;;5084057;28;20040;-81
2021/12/11 12:29:17;;;;;;;21.83;14.38;;;6.70;99.90;;;;;;5102765;28;20079;-82
2021/12/11 12:31:59;;;;;;;25.27;17.42;;;6.60;99.90;;;;;;5084502;28;20036;-81
2021/12/11 12:34:28;;;;;;;21.67;14.88;;;6.70;99.90;;;;;;5064824;28;20040;-80
2021/12/11 12:36:57;;;;;;;27.65;17.63;;;7.00;99.90;;;;;;5063133;28;20051;-79
2021/12/11 12:39:30;;;;;;;31.08;19.38;;;6.80;99.90;;;;;;5081171;28;20408;-79
2021/12/11 12:42:04;;;;;;;22.90;15.80;;;6.50;99.90;;;;;;5076833;28;20055;-79
2021/12/11 12:44:32;;;;;;;22.48;16.88;;;6.30;99.90;;;;;;5075346;28;20079;-79
2021/12/11 12:47:03;;;;;;;25.13;16.77;;;6.00;99.90;;;;;;5074723;28;20096;-82
2021/12/11 12:49:32;;;;;;;25.15;18.05;;;5.60;99.90;;;;;;5055787;28;20539;-79
2021/12/11 12:52:09;;;;;;;27.02;19.80;;;5.30;99.90;;;;;;5089587;28;20040;-79
2021/12/11 12:54:35;;;;;;;26.70;18.95;;;5.00;99.90;;;;;;5089233;28;20049;-78
2021/12/11 12:57:14;;;;;;;32.00;21.42;;;4.80;99.90;;;;;;5071570;28;20044;-79
2021/12/11 12:59:47;;;;;;;28.58;20.27;;;4.70;99.90;;;;;;5089584;28;20048;-80
2021/12/11 13:02:18;;;;;;;38.20;25.95;;;4.50;99.90;;;;;;5068465;28;20501;-79